Lander, WY

2:16 AM MDT on October 24, 2014 (GMT -0600)
Hunt | Change Station
CLOSE
Current Station
Airport
Location: Lander,
Elevation: 5558 ft
Nearby Weather Stations

Elev 5558 ft 42.82 °N, 108.73 °W | Updated 23 minutes ago

Clear
Clear
54 °F
Feels Like 54 °F
N
7
Wind Variable Wind from Variable

Today
High -- | Low -- °F
--% Chance of Precip.
Yesterday
High -- | Low -- °F
Precip. -- in
7:38 AM 6:18 PM
New Moon, 0% visible
Pressure 29.91 in
Visibility 10.0 miles
Clouds Clear
Dew Point 22 °F
Humidity 29%
Rainfall 0.00 in
Snow Depth Not available.
UV 0 out of 12
Pollen 2.20 out of 12
Air Quality Not available.
Flu Activity Sporadic
METAR KLND 240753Z AUTO VRB06KT 10SM CLR 12/M06 A3004 RMK AO2 SLP126 T01221056 TSNO

More Conditions Fewer Conditions

Pressure 29.91 in
Visibility 10.0 miles
Clouds Clear
Dew Point 22 °F
Humidity 29%
Rainfall 0.00 in
Snow Depth Not available.
UV 0 out of 12
Pollen 2.20 out of 12
Air Quality Not available.
Flu Activity Sporadic
METAR KLND 240753Z AUTO VRB06KT 10SM CLR 12/M06 A3004 RMK AO2 SLP126 T01221056 TSNO

More Conditions Fewer Conditions

10-Day Weather Forecast

Almanac

Astronomy

Oct. 24, 2014 Rise Set
Actual Time 7:38 AM MDT 6:18 PM MDT
Civil Twilight 7:09 AM MDT 6:47 PM MDT
Nautical Twilight 6:36 AM MDT 7:20 PM MDT
Astronomical Twilight 6:04 AM MDT 7:52 PM MDT
Moon 8:21 AM MDT 6:59 PM MDT
Length of Visible Light 11h 37m
Length of Day
10h 39m
Tomorrow will be 2m 41s shorter.
New Moon, 0% of the Moon is Illuminated
Today
New Moon
Oct 30
First Quarter
Nov 6
Full
Nov 14
Last Quarter
Nov 22
New

Today's Extremes

State Highs State Lows

Community

WunderPhotos

Upload Photos

1,764,511 photos uploaded!

WunderBlogs® & News

Nearby

Snow Depth

Station Depth Elevation
Big Sandy Opening 1 in 9080 ft
New Fork Lake 0 in 8340 ft
Gunsight Pass 2 in 9820 ft
Kendall R.S. 1 in 7740 ft
Loomis Park 0 in 8240 ft

Earthquake Activity

City Distance Mag. Time & Date
No recent earthquake activity has been reported nearby.
Minimum magnitude displayed is 2.5.

Coastal Water Temperatures

Place Temperature
No Stations Reporting

Nearby Weather Stations